Irfan Hardiyanto

Главный скаут - Semen Padang
5 Дек 2027
Воскресенье
Продолжить

Характер

Адаптивность (7) Амбиции (18) Скандальность (3) Верность (10) Стрессоустойчивость (14) Профессионализм (8) Благородство (2) Темперамент (15)

Профиль

Стиль управления Демократичный
Лицензия Континентальная Pro
Решительность 8
Управление людьми 3
Мотивация 6
Дисциплина 7
Удовлетворённость
100%
Усталость
0%
Должность Главный скаут
Зарплата 18.7K в нед.
Контракт 14.03.2028

Производительность

Поведение Хорошее
Эффективность тренировок
24%
Развитие игроков
35%
Профилактика травм
15%
Тактическая реализация
35%

Недавние события

Оценил игрока только что
Участвовал в селекционном совещании только что
Оценил игрока 7 дн. назад
Участвовал в селекционном совещании 7 дн. назад
Оценил игрока 7 дн. назад
Оценил игрока 7 дн. назад
Оценил игрока 7 дн. назад
Оценил игрока 7 дн. назад

Текущее наблюдение

128
Игрок Клуб Статус Способность Уверенность Наблюдений Последнее наблюдение Последний голос
Johan Campaña Patriotas Активный 116 / 111 40% 2 04.12.2027 -
Mateo Trejos Jaguares Активный 109 / 111 40% 2 04.12.2027 -
Bruno Tubarão Persija Активный 118 / 115 40% 8 01.12.2027 -
Danilo Santacruz Madura United Активный 107 / 112 40% 4 01.12.2027 -
Johnathan Dewa United Активный 107 / 98 40% 1 29.11.2027 -
Beckham Putra Persib Активный 76 / 91 40% 1 29.11.2027 -
Jort van der Sande Bali United Активный 106 / 109 40% 7 28.11.2027 -
Lucas Cardoso Maluku Utara United Активный 83 / 92 40% 5 28.11.2027 -
Juan Esteban Ávalo Aguilas Doradas Активный 121 / 112 40% 2 26.11.2027 -
Pedro Matos Persebaya Активный 91 / 94 40% 1 26.11.2027 -
Allano Bhayangkara Presisi Активный 107 / 120 40% 5 25.11.2027 -
Axel Batista Quilmes Активный 117 / 122 40% 5 23.11.2027 -
Francisco Funes Los Andes Активный 100 / 103 40% 3 23.11.2027 -
Caxambu Borneo Активный 80 / 77 40% 3 22.11.2027 -
Sheriddin Boboev PSM Активный 105 / 106 40% 1 22.11.2027 -
Gustavo França Arema Активный 106 / 108 40% 4 21.11.2027 -
Nicolás Fernández Tristán Suárez Активный 117 / 113 40% 1 21.11.2027 -
Luciano Paredes Maipú Активный 105 / 101 40% 2 20.11.2027 -
Juan Salas Patronato Активный 110 / 105 40% 4 18.11.2027 -
Ramiro Luna Quilmes Активный 110 / 115 40% 2 18.11.2027 -
Luquinhas PSBS Biak Активный 97 / 103 40% 2 17.11.2027 -
Emerson Souza Madura United Активный 95 / 84 40% 1 17.11.2027 -
Dimitri Persis Активный 96 / 106 40% 2 16.11.2027 -
Lautaro Pertusatti River Plate Активный 111 / 109 40% 2 14.11.2027 -
Diego Becker Tristán Suárez Активный 109 / 100 40% 2 13.11.2027 -
Carlos Cantillo Jaguares Активный 107 / 113 40% 5 12.11.2027 -
Moussa Sidibé Bhayangkara Presisi Активный 107 / 99 40% 3 12.11.2027 -
Eduardo Barbosa PSBS Biak Активный 100 / 93 40% 3 11.11.2027 -
Valdeci Arema Активный 106 / 94 40% 7 08.11.2027 -
Kaio Nunes Borneo Активный 97 / 103 40% 4 08.11.2027 -
Facundo Taborda Racing Активный 108 / 110 40% 3 07.11.2027 -
Agustín Ojeda Chaco For Ever Активный 117 / 114 40% 1 07.11.2027 -
Alexis Gómez Persijap Активный 94 / 105 40% 7 06.11.2027 -
Matías Sosa Arsenal Активный 113 / 116 40% 2 06.11.2027 -
Jefferson Persebaya Активный 105 / 108 40% 3 05.11.2027 -
Rayco Persita Активный 107 / 100 40% 8 04.11.2027 -
Francisco Maidana Gimnasia y Esgrima Активный 119 / 111 40% 2 03.11.2027 -
Taisei Marukawa Dewa United Активный 99 / 93 40% 2 30.10.2027 -
Ezra Walian Persik Активный 105 / 99 40% 2 28.10.2027 -
Nicolás Mosca Atlanta Активный 112 / 116 40% 1 26.10.2027 -
Axel Guerra Chacarita Juniors Активный 106 / 109 40% 3 23.10.2027 -
Deri Corfe PSIM Активный 87 / 92 40% 1 23.10.2027 -
Gabriel Obredor Deportivo Riestra Активный 115 / 113 40% 5 20.10.2027 -
Gustavo Almeida Persija Активный 85 / 95 40% 5 19.10.2027 -
Mirza Mustafić Bali United Активный 92 / 97 40% 1 18.10.2027 -
Berguinho Persib Активный 93 / 90 40% 5 13.10.2027 -
Miroslav Maričić Persis Активный 104 / 109 40% 2 13.10.2027 -
Federico Pérez Agropecuario Argentino Активный 122 / 124 40% 4 11.10.2027 -
Brian Cordoba Cortulua Активный 127 / 118 40% 2 11.10.2027 -
Nermin Haljeta PSIM Активный 97 / 110 40% 5 10.10.2027 -
Carlos Gugenheim Almirante Brown Активный 113 / 112 40% 1 10.10.2027 -
Reno Piscopo Persik Активный 106 / 110 40% 3 08.10.2027 -
Aly Ndom Persijap Активный 100 / 83 40% 2 05.10.2027 -
Lucas Ríos Atlanta Активный 110 / 122 40% 5 17.09.2027 -
Facundo Rizzi Güemes Активный 103 / 106 40% 2 17.09.2027 -
Juan José Vásquez Union Magdalena Активный 87 / 88 40% 1 16.09.2027 -
Matías Machado Racing Активный 120 / 114 40% 3 06.09.2027 -
Dalberto Arema Активный 120 / 118 40% 1 01.09.2027 -
Kei Hirose Borneo Активный 99 / 99 40% 2 30.08.2027 -
Borja Martínez Persijap Активный 110 / 93 40% 2 28.08.2027 -
Gonzalo Asis Almagro Активный 120 / 116 40% 3 27.08.2027 -
Daisuke Sakai PSM Активный 88 / 91 40% 3 26.08.2027 -
Jean Pierre Rosso Liverpool Montevideo Активный 111 / 113 40% 1 24.08.2027 -
Safrudin Tahar Maluku Utara United Отклонён 77 / 72 62% 1 23.08.2027 Против
Francisco Rivera Persebaya Активный 109 / 113 40% 1 22.08.2027 -
Sávio PSM Активный 99 / 90 40% 4 20.08.2027 -
Jajá Madura United Активный 93 / 89 40% 1 19.08.2027 -
Cristian Graciano Real Cartagena Активный 105 / 118 40% 2 17.08.2027 -
Ridho Syuhada Maluku Utara United Отклонён 78 / 69 62% 1 16.08.2027 Против
Kallum Cesay Salford City Активный 105 / 101 40% 1 06.08.2027 -
Alejandro Valencia Valledupar Активный 115 / 117 40% 1 06.08.2027 -
Aaron Drinan Swindon Town Активный 118 / 95 40% 1 05.08.2027 -
Claudio Messaggi Ospitaletto Активный 85 / 93 40% 3 02.08.2027 -
Kyle Knoyle Mansfield Town Активный 100 / 98 40% 2 02.08.2027 -
Santiago Paz Spezia Активный 96 / 84 40% 1 29.07.2027 -
Federico Pace Latina Активный 98 / 93 40% 3 23.07.2027 -
Dion Rankine Crewe Alexandra Активный 98 / 85 40% 1 22.07.2027 -
Simone Auriletto Renate Активный 103 / 103 40% 3 15.07.2027 -
Mattia Capoferri Pergolettese Активный 84 / 106 40% 2 15.07.2027 -
Akin Odimayo Crawley Town Активный 111 / 98 40% 1 14.07.2027 -
Mathys Jean Marie Oliveirense Активный 85 / 101 40% 2 13.07.2027 -
Seb Palmer-Houlden Gillingham Активный 100 / 99 40% 1 07.07.2027 -
Pasquale Riccardi Siracusa Активный 85 / 92 40% 2 30.06.2027 -
Lewis Cass Harrogate Town Активный 83 / 85 40% 2 28.06.2027 -
Cesar Rubio Envigado Активный 105 / 113 40% 1 28.06.2027 -
Juan Sebastián Peña Leones Активный 112 / 100 40% 1 24.06.2027 -
Marco Bertini Pianese Активный 92 / 89 40% 1 19.06.2027 -
Lorenzo Da Pozzo Ravenna Активный 101 / 113 40% 1 19.06.2027 -
Yeferson Rodallega Envigado Активный 122 / 109 40% 1 08.06.2027 -
Simone Ianesi Pianese Активный 89 / 115 40% 2 07.06.2027 -
Gabriele Mondini Ospitaletto Активный 94 / 96 40% 1 03.06.2027 -
Faris Aditama PSBS Biak Отклонён 58 / 62 62% 1 02.06.2027 -
Aaron Nemane Newport County Активный 93 / 93 40% 1 02.06.2027 -
Josh Dacres-Cogley Stockport County Активный 116 / 99 40% 3 28.12.2026 -
Shayne Pattynama Persija Активный 103 / 103 40% 2 27.12.2026 -
Anton Fase PSIM Активный 100 / 93 40% 1 27.12.2026 -
Alexandr Saplinov Volga Активный 98 / 104 40% 2 26.12.2026 -
Rizky Eka PSM Активный 96 / 79 40% 3 23.12.2026 -
Joe Snowdon Swindon Town Активный 89 / 105 40% 1 17.12.2026 -
Kamran Aliev SKA Khabarovsk Активный 100 / 105 40% 1 16.12.2026 -
Riquelme Madura United Активный 93 / 92 40% 2 15.12.2026 -
Igor Inocêncio Maluku Utara United Активный 118 / 102 40% 2 14.12.2026 -
Marcos Astina Borneo Активный 121 / 108 40% 2 04.12.2026 -
Valentín Fenoglio Estudiantes Активный 117 / 109 40% 4 03.12.2026 -
Tom Pearce Chesterfield Активный 122 / 92 40% 1 30.11.2026 -
Jon Eceizabarrena Real Sociedad Активный 89 / 87 40% 1 30.11.2026 -
Samuel Ďatko MSK Zilina Активный 123 / 100 40% 2 29.11.2026 -
Hakeeb Adelakun Doncaster Rovers Активный 91 / 88 40% 1 27.11.2026 -
Marcus Browne AFC Wimbledon Активный 93 / 99 40% 4 24.11.2026 -
Kirill Bogdanets Volna Активный 91 / 82 40% 1 22.11.2026 -
Kian Spence Rotherham United Активный 95 / 111 40% 1 20.11.2026 -
Robbie McKenzie Gillingham Активный 104 / 109 40% 1 20.11.2026 -
Nikolay Giorgobiani Fakel Активный 115 / 114 40% 1 19.11.2026 -
Ousmane Diawara Altach Активный 113 / 93 40% 1 16.11.2026 -
Dejan Tumbas Persis Активный 107 / 103 40% 2 13.11.2026 -
Thijmen Goppel Bali United Активный 105 / 107 40% 1 08.11.2026 -
Mark Helm Fleetwood Town Активный 108 / 116 40% 1 03.11.2026 -
Nathan Moriah-Welsh Mansfield Town Активный 97 / 100 40% 1 31.10.2026 -
Kamil Conteh Bristol Rovers Активный 95 / 107 40% 1 29.10.2026 -
Charlie Whitaker Tranmere Rovers Активный 108 / 105 40% 1 27.10.2026 -
Marvin Kaleta Rotherham United Активный 108 / 110 40% 1 26.10.2026 -
Ryan Leijten Lokomotiv Plovdiv Активный 116 / 99 40% 1 25.10.2026 -
Jack Lankester Crewe Alexandra Активный 98 / 105 40% 1 25.10.2026 -
Ivar Jenner Dewa United Активный 103 / 104 40% 1 20.10.2026 -
Kyreece Lisbie Colchester United Активный 116 / 103 40% 1 20.10.2026 -
Eli King Gillingham Активный 114 / 114 40% 1 16.10.2026 -
Mariano Bracamonte Deportivo Riestra Активный 113 / 114 40% 1 11.10.2026 -
Lewis McCann Fleetwood Town Активный 89 / 92 40% 1 07.10.2026 -